Time;durP1;ratioP1;P1;durP2;ratioP2;P2;SDS_P1;SDS_P2;PMS_P1;PMS_P2;Temp;Humidity;BMP_temperature;BMP_pressure;BME280_temperature;BME280_humidity;BME280_pressure;Samples;Min_cycle;Max_cycle;Signal;HPM_P1;HPM_P2
2022/01/01 00:01:28;;;;;;;63.60;45.70;;;;;;;9.44;100.00;99180.81;5108032;28;20598;-69
2022/01/01 00:03:56;;;;;;;76.10;53.80;;;;;;;9.47;100.00;99180.63;5104290;28;20212;-69
2022/01/01 00:06:23;;;;;;;90.37;61.80;;;;;;;9.49;100.00;99184.09;5106421;28;20559;-69
2022/01/01 00:08:49;;;;;;;97.70;69.30;;;;;;;9.50;100.00;99185.78;5104336;28;20205;-69
2022/01/01 00:11:16;;;;;;;104.47;71.30;;;;;;;9.51;100.00;99182.22;5098064;28;20220;-67
2022/01/01 00:13:42;;;;;;;104.37;71.57;;;;;;;9.48;100.00;99182.38;5098638;28;20214;-69
2022/01/01 00:16:09;;;;;;;94.17;66.93;;;;;;;9.46;100.00;99187.72;5100285;28;20568;-67
2022/01/01 00:18:36;;;;;;;98.10;69.13;;;;;;;9.47;100.00;99186.78;5097480;28;20686;-68
2022/01/01 00:21:05;;;;;;;99.57;66.50;;;;;;;9.48;100.00;99188.50;5097640;28;20215;-68
2022/01/01 00:23:32;;;;;;;102.57;67.63;;;;;;;9.49;100.00;99189.34;5096762;28;20239;-68
2022/01/01 00:25:58;;;;;;;96.10;63.83;;;;;;;9.52;100.00;99199.75;5100271;28;20247;-68
2022/01/01 00:28:25;;;;;;;84.60;58.20;;;;;;;9.55;100.00;99199.63;5097395;28;20226;-68
2022/01/01 00:30:52;;;;;;;74.87;54.33;;;;;;;9.59;100.00;99203.81;5097666;28;20244;-68
2022/01/01 00:33:18;;;;;;;70.87;50.53;;;;;;;9.64;100.00;99204.44;5099179;28;20217;-68
2022/01/01 00:35:45;;;;;;;69.77;49.80;;;;;;;9.67;100.00;99199.88;5101618;28;20221;-67
2022/01/01 00:38:12;;;;;;;63.70;46.27;;;;;;;9.67;100.00;99207.78;5098691;28;20666;-68
2022/01/01 00:40:39;;;;;;;63.53;47.10;;;;;;;9.63;100.00;99202.72;5098967;28;20225;-68
2022/01/01 00:43:05;;;;;;;66.63;47.40;;;;;;;9.64;100.00;99204.44;5098722;28;20235;-70
2022/01/01 00:45:32;;;;;;;71.87;49.97;;;;;;;9.70;100.00;99204.13;5105232;28;20224;-67
2022/01/01 00:47:58;;;;;;;68.10;48.93;;;;;;;9.71;100.00;99209.34;5109095;28;20581;-69
2022/01/01 00:50:25;;;;;;;67.47;49.47;;;;;;;9.74;100.00;99211.81;5101505;28;20209;-69
2022/01/01 00:52:52;;;;;;;68.73;50.00;;;;;;;9.73;100.00;99210.13;5100478;28;20236;-69
2022/01/01 00:55:20;;;;;;;68.77;47.93;;;;;;;9.76;100.00;99215.28;5098645;28;20305;-69
2022/01/01 00:57:47;;;;;;;64.77;46.63;;;;;;;9.72;100.00;99210.22;5097955;28;20224;-69
2022/01/01 01:00:14;;;;;;;54.63;39.60;;;;;;;9.64;100.00;99209.72;5098150;28;20221;-69
2022/01/01 01:02:40;;;;;;;45.20;33.73;;;;;;;9.65;100.00;99212.28;5100129;28;20234;-70
2022/01/01 01:05:07;;;;;;;47.03;34.53;;;;;;;9.77;100.00;99214.34;5098349;28;20223;-69
2022/01/01 01:07:34;;;;;;;45.67;32.87;;;;;;;9.67;100.00;99212.22;5097648;28;20214;-69
2022/01/01 01:10:01;;;;;;;40.83;29.90;;;;;;;9.66;100.00;99213.16;5105894;28;20585;-69
2022/01/01 01:12:38;;;;;;;36.13;25.83;;;;;;;9.70;100.00;99214.69;5106123;28;20684;-69
2022/01/01 01:15:05;;;;;;;29.90;23.47;;;;;;;9.76;100.00;99210.00;5105544;28;20389;-69
2022/01/01 01:17:31;;;;;;;27.90;20.23;;;;;;;9.75;100.00;99212.69;5106262;28;20300;-69
2022/01/01 01:19:58;;;;;;;24.40;19.63;;;;;;;9.85;100.00;99214.81;5107833;28;20690;-70
2022/01/01 01:22:26;;;;;;;22.17;17.60;;;;;;;9.84;100.00;99207.81;5107978;28;20233;-69
2022/01/01 01:24:53;;;;;;;23.97;17.80;;;;;;;9.88;100.00;99214.66;5100228;28;20883;-70
2022/01/01 01:27:20;;;;;;;19.07;14.83;;;;;;;9.99;100.00;99216.78;5097472;28;20211;-70
2022/01/01 01:29:47;;;;;;;20.10;14.80;;;;;;;9.86;100.00;99216.50;5097436;28;20234;-70
2022/01/01 01:32:14;;;;;;;20.30;14.23;;;;;;;9.89;100.00;99220.78;5100400;28;20221;-69
2022/01/01 01:34:40;;;;;;;18.20;14.20;;;;;;;9.92;100.00;99228.56;5097010;28;20219;-69
2022/01/01 01:37:07;;;;;;;17.10;13.50;;;;;;;9.94;100.00;99224.94;5097290;28;20211;-68
2022/01/01 01:39:33;;;;;;;16.37;12.33;;;;;;;9.96;100.00;99232.75;5097243;28;20218;-69
2022/01/01 01:42:01;;;;;;;16.53;12.30;;;;;;;9.97;100.00;99235.31;5099191;28;20593;-68
2022/01/01 01:44:32;;;;;;;16.10;12.53;;;;;;;10.00;100.00;99226.41;5095087;28;20213;-69
2022/01/01 01:47:02;;;;;;;15.67;11.97;;;;;;;10.01;100.00;99221.06;5096663;28;20267;-67
2022/01/01 01:49:29;;;;;;;15.40;11.07;;;;;;;10.03;100.00;99226.25;5096927;28;20221;-70
2022/01/01 01:51:57;;;;;;;15.80;12.47;;;;;;;10.01;100.00;99228.97;5099925;28;20214;-68
2022/01/01 01:54:24;;;;;;;13.73;10.77;;;;;;;10.01;100.00;99228.09;5104483;28;20208;-70
2022/01/01 01:56:51;;;;;;;16.47;11.83;;;;;;;9.99;100.00;99228.22;5107228;28;20213;-68
2022/01/01 01:59:17;;;;;;;16.83;12.17;;;;;;;9.99;100.00;99237.91;5107468;28;20219;-68
2022/01/01 02:01:44;;;;;;;14.43;11.43;;;;;;;10.00;100.00;99223.75;5104503;28;20576;-68
2022/01/01 02:04:12;;;;;;;13.97;11.10;;;;;;;9.96;100.00;99230.97;5106650;28;20243;-68
2022/01/01 02:06:40;;;;;;;14.90;11.07;;;;;;;9.92;100.00;99225.94;5096467;28;20211;-68
2022/01/01 02:09:07;;;;;;;14.17;10.70;;;;;;;9.93;100.00;99227.63;5096643;28;20209;-68
2022/01/01 02:11:33;;;;;;;14.67;10.83;;;;;;;9.91;100.00;99233.00;5097168;28;20214;-68
2022/01/01 02:14:03;;;;;;;14.60;11.67;;;;;;;9.96;100.00;99227.47;5100197;28;20306;-68
2022/01/01 02:16:38;;;;;;;16.07;12.27;;;;;;;9.93;100.00;99239.06;5096848;28;20225;-68
2022/01/01 02:19:05;;;;;;;17.13;12.80;;;;;;;9.95;100.00;99228.41;5096732;28;20267;-68
2022/01/01 02:21:33;;;;;;;15.67;11.47;;;;;;;10.01;100.00;99233.38;5097522;28;20257;-68
2022/01/01 02:24:00;;;;;;;15.57;11.13;;;;;;;10.07;100.00;99241.91;5099057;28;20239;-68
2022/01/01 02:26:32;;;;;;;15.60;10.37;;;;;;;10.08;100.00;99232.19;5096804;28;20252;-68
2022/01/01 02:28:59;;;;;;;14.47;10.23;;;;;;;10.07;100.00;99241.03;5096853;28;20212;-68
2022/01/01 02:31:28;;;;;;;14.10;10.97;;;;;;;10.02;100.00;99222.75;5098705;28;20242;-68
2022/01/01 02:33:55;;;;;;;15.27;10.97;;;;;;;10.02;100.00;99224.53;5098284;28;20213;-68
2022/01/01 02:36:35;;;;;;;13.13;10.17;;;;;;;10.02;100.00;99227.16;5095137;28;20221;-69
2022/01/01 02:39:09;;;;;;;12.37;9.87;;;;;;;10.01;100.00;99221.06;5096773;28;20210;-67
2022/01/01 02:41:36;;;;;;;16.10;10.93;;;;;;;10.05;100.00;99227.06;5103896;28;20237;-67
2022/01/01 02:44:03;;;;;;;14.93;10.93;;;;;;;10.07;100.00;99223.41;5106838;28;20244;-67
2022/01/01 02:46:29;;;;;;;14.80;11.20;;;;;;;10.07;100.00;99227.84;5106869;28;20213;-67
2022/01/01 02:48:55;;;;;;;13.90;10.40;;;;;;;10.02;100.00;99228.03;5104077;28;20215;-69
2022/01/01 02:51:22;;;;;;;14.33;11.43;;;;;;;10.01;100.00;99221.06;5102939;28;20211;-68
2022/01/01 02:53:50;;;;;;;16.97;11.40;;;;;;;10.04;100.00;99226.19;5106893;28;20218;-68
2022/01/01 02:56:16;;;;;;;14.33;11.27;;;;;;;10.06;100.00;99234.06;5110819;28;20221;-68
2022/01/01 02:58:43;;;;;;;17.63;11.90;;;;;;;10.03;100.00;99226.25;5108461;28;20211;-68
2022/01/01 03:01:10;;;;;;;14.70;10.47;;;;;;;10.02;100.00;99224.53;5107154;28;20213;-68
2022/01/01 03:03:37;;;;;;;13.67;10.10;;;;;;;10.01;100.00;99220.19;5098500;28;20244;-68
2022/01/01 03:06:04;;;;;;;14.60;11.97;;;;;;;9.98;100.00;99217.72;5100209;28;20216;-68
2022/01/01 03:08:30;;;;;;;17.63;13.23;;;;;;;9.97;100.00;99218.66;5103224;28;20199;-68
2022/01/01 03:10:58;;;;;;;21.10;14.90;;;;;;;9.94;100.00;99218.78;5106773;28;20214;-68
2022/01/01 03:13:24;;;;;;;20.83;16.47;;;;;;;9.91;100.00;99217.16;5110511;28;20205;-68
2022/01/01 03:15:51;;;;;;;24.33;19.40;;;;;;;9.91;100.00;99234.78;5110760;28;20222;-68
2022/01/01 03:18:17;;;;;;;28.97;21.10;;;;;;;9.89;100.00;99232.22;5108867;28;20226;-68
2022/01/01 03:20:44;;;;;;;31.33;23.50;;;;;;;9.90;100.00;99217.25;5104037;28;20214;-68
2022/01/01 03:23:10;;;;;;;36.77;27.33;;;;;;;9.87;100.00;99218.25;5100578;28;20603;-68
2022/01/01 03:25:37;;;;;;;42.23;29.60;;;;;;;9.88;100.00;99213.81;5100148;28;20224;-68
2022/01/01 03:28:05;;;;;;;43.37;32.20;;;;;;;9.87;100.00;99217.38;5099800;28;20228;-68
2022/01/01 03:30:32;;;;;;;43.43;32.57;;;;;;;9.89;100.00;99215.50;5100880;28;20250;-68
2022/01/01 03:32:59;;;;;;;42.47;32.67;;;;;;;9.87;100.00;99212.09;5101032;28;20223;-68
2022/01/01 03:35:25;;;;;;;43.50;32.23;;;;;;;9.85;100.00;99204.25;5100074;28;20588;-68
2022/01/01 03:37:52;;;;;;;47.30;34.60;;;;;;;9.89;100.00;99211.09;5099928;28;20218;-68
2022/01/01 03:40:18;;;;;;;45.90;34.60;;;;;;;9.87;100.00;99215.59;5101488;28;20214;-68
2022/01/01 03:42:45;;;;;;;46.10;34.23;;;;;;;9.86;100.00;99210.38;5101101;28;20210;-68
2022/01/01 03:45:13;;;;;;;41.27;31.87;;;;;;;9.89;100.00;99220.78;5099894;28;20211;-68
2022/01/01 03:47:39;;;;;;;43.80;31.37;;;;;;;9.85;100.00;99216.59;5099893;28;20210;-68
2022/01/01 03:50:06;;;;;;;38.67;28.90;;;;;;;9.88;100.00;99211.16;5101072;28;20206;-68
2022/01/01 03:52:34;;;;;;;40.00;30.73;;;;;;;9.89;100.00;99215.50;5101240;28;20217;-68
2022/01/01 03:55:00;;;;;;;41.47;30.87;;;;;;;9.89;100.00;99220.78;5097465;28;20248;-68
2022/01/01 03:57:27;;;;;;;39.97;30.37;;;;;;;9.90;100.00;99214.59;5099708;28;20223;-68
2022/01/01 03:59:53;;;;;;;45.13;32.73;;;;;;;9.90;100.00;99217.25;5100324;28;20208;-68
2022/01/01 04:02:21;;;;;;;41.77;30.97;;;;;;;9.90;100.00;99223.34;5101727;28;20216;-68
2022/01/01 04:04:47;;;;;;;44.50;31.50;;;;;;;9.87;100.00;99227.94;5099137;28;20238;-68
2022/01/01 04:07:14;;;;;;;42.43;30.30;;;;;;;9.84;100.00;99228.09;5098253;28;20677;-68
2022/01/01 04:09:40;;;;;;;40.87;31.77;;;;;;;9.80;100.00;99223.91;5100782;28;20698;-68
2022/01/01 04:12:07;;;;;;;37.33;28.17;;;;;;;9.79;100.00;99224.84;5098622;28;20697;-68
2022/01/01 04:14:34;;;;;;;37.97;28.87;;;;;;;9.78;100.00;99226.59;5098981;28;20210;-68
2022/01/01 04:17:00;;;;;;;40.17;30.33;;;;;;;9.76;100.00;99224.97;5098486;28;20221;-68
2022/01/01 04:19:39;;;;;;;36.17;27.70;;;;;;;9.74;100.00;99222.38;5101793;28;20212;-68
2022/01/01 04:22:06;;;;;;;35.53;26.70;;;;;;;9.71;100.00;99222.56;5096698;28;20295;-68
2022/01/01 04:24:32;;;;;;;40.80;27.60;;;;;;;9.70;100.00;99217.34;5098201;28;20243;-68
2022/01/01 04:26:59;;;;;;;39.57;28.00;;;;;;;9.67;100.00;99215.69;5098669;28;20222;-68
2022/01/01 04:29:25;;;;;;;35.87;26.43;;;;;;;9.69;100.00;99218.28;5100841;28;20268;-68
2022/01/01 04:31:52;;;;;;;38.23;26.30;;;;;;;9.66;100.00;99214.00;5098576;28;20224;-68
2022/01/01 04:34:18;;;;;;;34.17;25.87;;;;;;;9.62;100.00;99212.41;5107239;28;20206;-68
2022/01/01 04:36:50;;;;;;;40.57;28.33;;;;;;;9.58;100.00;99210.00;5109092;28;20216;-68
2022/01/01 04:39:17;;;;;;;36.10;27.67;;;;;;;9.44;100.00;99202.78;5107881;28;20290;-69
2022/01/01 04:41:43;;;;;;;40.03;28.90;;;;;;;9.32;100.00;99203.38;5107366;28;20211;-68
2022/01/01 04:44:10;;;;;;;37.33;27.33;;;;;;;9.28;100.00;99208.84;5108561;28;20234;-68
2022/01/01 04:46:36;;;;;;;37.73;28.03;;;;;;;9.19;100.00;99209.28;5108904;28;20645;-68
2022/01/01 04:49:03;;;;;;;34.40;26.77;;;;;;;9.08;100.00;99201.00;5103503;28;20243;-68
2022/01/01 04:51:29;;;;;;;35.23;26.00;;;;;;;8.89;100.00;99186.97;5106164;28;20228;-68
2022/01/01 04:54:00;;;;;;;34.30;26.23;;;;;;;8.65;100.00;99188.94;5108902;28;20223;-68
2022/01/01 04:56:28;;;;;;;36.83;25.57;;;;;;;8.44;100.00;99186.41;5108403;28;20213;-68
2022/01/01 04:58:55;;;;;;;34.33;25.43;;;;;;;8.25;100.00;99193.34;5104944;28;20208;-68
2022/01/01 05:01:22;;;;;;;35.30;26.17;;;;;;;8.10;100.00;99191.38;5106806;28;20208;-68
2022/01/01 05:03:49;;;;;;;39.77;26.27;;;;;;;8.00;100.00;99193.53;5108481;28;20290;-70
2022/01/01 05:06:15;;;;;;;37.03;24.97;;;;;;;7.89;100.00;99187.84;5108643;28;20217;-69
2022/01/01 05:08:42;;;;;;;37.13;25.43;;;;;;;7.78;100.00;99183.97;5104666;28;20210;-69
2022/01/01 05:11:10;;;;;;;38.50;25.83;;;;;;;7.69;100.00;99184.34;5097374;28;20207;-69
2022/01/01 05:13:36;;;;;;;35.27;25.37;;;;;;;7.59;100.00;99183.84;5097761;28;20217;-69
2022/01/01 05:16:02;;;;;;;33.87;23.93;;;;;;;7.52;100.00;99179.75;5095678;28;20220;-69
2022/01/01 05:18:29;;;;;;;33.73;23.33;;;;;;;7.46;100.00;99176.50;5100271;28;20225;-69
2022/01/01 05:20:56;;;;;;;31.40;22.63;;;;;;;7.39;100.00;99188.19;5097707;28;20275;-69
2022/01/01 05:23:22;;;;;;;32.40;22.97;;;;;;;7.40;100.00;99197.78;5097264;28;20226;-69
2022/01/01 05:25:49;;;;;;;35.20;22.23;;;;;;;7.38;100.00;99202.28;5097423;28;20218;-69
2022/01/01 05:28:16;;;;;;;33.20;22.43;;;;;;;7.28;100.00;99195.69;5100440;28;20217;-69
2022/01/01 05:30:43;;;;;;;31.67;21.73;;;;;;;7.21;100.00;99204.69;5104948;28;20235;-69
2022/01/01 05:33:09;;;;;;;30.67;21.23;;;;;;;7.20;100.00;99202.16;5107929;28;20211;-69
2022/01/01 05:35:36;;;;;;;32.77;21.97;;;;;;;7.12;100.00;99202.44;5108027;28;20218;-69
2022/01/01 05:38:02;;;;;;;32.20;21.07;;;;;;;7.10;100.00;99201.66;5105479;28;20225;-67
2022/01/01 05:40:30;;;;;;;31.10;22.17;;;;;;;7.07;100.00;99211.41;5102845;28;20705;-69
2022/01/01 05:42:56;;;;;;;28.00;19.67;;;;;;;7.03;100.00;99209.81;5107618;28;20295;-69
2022/01/01 05:45:24;;;;;;;28.80;21.00;;;;;;;6.97;100.00;99210.88;5107676;28;20245;-69
2022/01/01 05:47:51;;;;;;;29.40;20.60;;;;;;;6.96;100.00;99209.19;5105858;28;20705;-69
2022/01/01 05:50:20;;;;;;;28.33;19.17;;;;;;;6.97;100.00;99215.31;5105980;28;20214;-68
2022/01/01 05:52:46;;;;;;;28.90;19.93;;;;;;;7.04;100.00;99215.03;5106775;28;20221;-69
2022/01/01 05:55:13;;;;;;;33.03;21.17;;;;;;;7.10;100.00;99220.06;5107355;28;20233;-69
2022/01/01 05:57:39;;;;;;;31.40;21.03;;;;;;;7.16;100.00;99222.44;5107135;28;20236;-69
2022/01/01 06:00:07;;;;;;;31.40;20.37;;;;;;;7.20;100.00;99226.66;5103657;28;20215;-69
2022/01/01 06:02:40;;;;;;;31.10;21.40;;;;;;;7.24;100.00;99225.63;5105473;28;20276;-69
2022/01/01 06:05:07;;;;;;;34.20;21.57;;;;;;;7.34;100.00;99238.34;5107496;28;20269;-69
2022/01/01 06:07:34;;;;;;;29.17;20.47;;;;;;;7.43;100.00;99231.88;5105099;28;20213;-68
2022/01/01 06:10:01;;;;;;;30.93;21.33;;;;;;;7.51;100.00;99224.53;5097957;28;20220;-69
2022/01/01 06:12:27;;;;;;;32.00;21.47;;;;;;;7.58;100.00;99240.03;5098825;28;20214;-69
2022/01/01 06:14:54;;;;;;;31.17;21.90;;;;;;;7.61;100.00;99232.03;5097228;28;20218;-69
2022/01/01 06:17:20;;;;;;;30.33;20.50;;;;;;;7.60;100.00;99239.97;5096855;28;20703;-69
2022/01/01 06:19:48;;;;;;;31.80;20.97;;;;;;;7.56;100.00;99241.88;5098457;28;20214;-69
2022/01/01 06:22:15;;;;;;;30.83;20.73;;;;;;;7.58;100.00;99241.78;5098851;28;20221;-69
2022/01/01 06:24:41;;;;;;;32.93;20.60;;;;;;;7.63;100.00;99247.72;5096632;28;20242;-67
2022/01/01 06:27:08;;;;;;;28.47;20.00;;;;;;;7.72;100.00;99245.59;5096583;28;20664;-67
2022/01/01 06:29:34;;;;;;;28.83;20.20;;;;;;;7.82;100.00;99252.19;5096914;28;20242;-67
2022/01/01 06:32:01;;;;;;;28.80;20.37;;;;;;;7.91;100.00;99254.44;5099327;28;20218;-67
2022/01/01 06:34:27;;;;;;;27.40;18.90;;;;;;;8.02;100.00;99257.50;5095214;28;20215;-68
2022/01/01 06:36:55;;;;;;;24.97;18.27;;;;;;;8.07;100.00;99252.91;5096775;28;20234;-69
2022/01/01 06:39:21;;;;;;;24.40;17.30;;;;;;;8.14;100.00;99253.53;5097074;28;20550;-69
2022/01/01 06:41:48;;;;;;;23.50;17.90;;;;;;;8.17;100.00;99261.28;5099603;28;20217;-69
2022/01/01 06:44:14;;;;;;;21.10;15.93;;;;;;;8.23;100.00;99253.16;5096530;28;20257;-69
2022/01/01 06:46:41;;;;;;;22.00;16.27;;;;;;;8.24;100.00;99258.38;5096459;28;20226;-69
2022/01/01 06:49:07;;;;;;;23.80;16.07;;;;;;;8.31;100.00;99266.84;5096422;28;20222;-69
2022/01/01 06:51:33;;;;;;;21.63;15.20;;;;;;;8.32;100.00;99260.69;5100006;28;20284;-70
2022/01/01 06:54:01;;;;;;;22.20;14.80;;;;;;;8.32;100.00;99263.31;5096442;28;20230;-69
2022/01/01 06:56:28;;;;;;;18.50;14.20;;;;;;;8.35;100.00;99269.31;5096264;28;20677;-69
2022/01/01 06:58:54;;;;;;;19.17;13.10;;;;;;;8.35;100.00;99263.16;5096218;28;20212;-69
2022/01/01 07:01:21;;;;;;;18.30;13.20;;;;;;;8.37;100.00;99262.19;5098056;28;20217;-69
2022/01/01 07:03:47;;;;;;;19.50;13.97;;;;;;;8.34;100.00;99258.81;5100557;28;20221;-69
2022/01/01 07:06:13;;;;;;;18.00;13.83;;;;;;;8.36;100.00;99259.59;5106987;28;20284;-69
2022/01/01 07:08:40;;;;;;;19.27;14.37;;;;;;;8.32;100.00;99258.03;5101978;28;20203;-69
2022/01/01 07:11:08;;;;;;;18.20;13.30;;;;;;;8.26;100.00;99247.78;5096796;28;20217;-69
2022/01/01 07:13:34;;;;;;;19.63;14.23;;;;;;;8.23;100.00;99258.41;5095817;28;20223;-68
2022/01/01 07:16:01;;;;;;;18.80;13.80;;;;;;;8.18;100.00;99255.94;5095839;28;20215;-69
2022/01/01 07:18:27;;;;;;;19.07;13.73;;;;;;;8.16;100.00;99254.31;5096793;28;20703;-69
2022/01/01 07:20:54;;;;;;;18.70;12.97;;;;;;;8.17;100.00;99256.00;5097281;28;20221;-69
2022/01/01 07:23:20;;;;;;;19.63;13.07;;;;;;;8.22;100.00;99260.22;5095768;28;20582;-69
2022/01/01 07:25:47;;;;;;;17.63;12.70;;;;;;;8.30;100.00;99259.88;5095457;28;20707;-69
2022/01/01 07:28:16;;;;;;;16.00;12.07;;;;;;;8.38;100.00;99268.31;5094737;28;20211;-70
2022/01/01 07:30:43;;;;;;;16.33;11.93;;;;;;;8.45;100.00;99262.72;5097373;28;20241;-67
2022/01/01 07:33:12;;;;;;;16.00;11.17;;;;;;;8.50;100.00;99270.44;5095398;28;20670;-69
2022/01/01 07:35:38;;;;;;;15.33;12.00;;;;;;;8.56;100.00;99267.53;5095695;28;20212;-69
2022/01/01 07:38:05;;;;;;;14.87;11.23;;;;;;;8.58;100.00;99255.16;5096272;28;20698;-69
2022/01/01 07:40:34;;;;;;;14.40;10.60;;;;;;;8.59;100.00;99256.84;5097181;28;20218;-69
2022/01/01 07:43:01;;;;;;;14.17;10.30;;;;;;;8.64;100.00;99249.59;5098922;28;20676;-69
2022/01/01 07:45:29;;;;;;;13.73;9.73;;;;;;;8.53;100.00;99257.13;5099322;28;20234;-69
2022/01/01 07:47:55;;;;;;;12.50;9.13;;;;;;;8.50;100.00;99255.47;5100395;28;20218;-69
2022/01/01 07:50:22;;;;;;;12.40;9.03;;;;;;;8.51;100.00;99248.44;5100954;28;20213;-69
2022/01/01 07:52:48;;;;;;;12.27;8.70;;;;;;;8.45;100.00;99251.34;5097629;28;20223;-69
2022/01/01 07:55:15;;;;;;;12.27;8.77;;;;;;;8.36;100.00;99249.94;5098832;28;20215;-70
2022/01/01 07:57:41;;;;;;;12.07;8.30;;;;;;;8.30;100.00;99257.22;5099707;28;20214;-69
2022/01/01 08:00:09;;;;;;;13.53;9.10;;;;;;;8.24;100.00;99250.47;5101764;28;20225;-69
2022/01/01 08:02:41;;;;;;;11.93;9.27;;;;;;;8.19;100.00;99241.88;5098691;28;20718;-69
2022/01/01 08:05:08;;;;;;;12.10;9.00;;;;;;;8.19;100.00;99241.00;5098587;28;20232;-69
2022/01/01 08:07:35;;;;;;;13.23;9.67;;;;;;;8.09;100.00;99239.69;5100016;28;20215;-69
2022/01/01 08:10:01;;;;;;;13.07;9.13;;;;;;;8.12;100.00;99250.94;5102113;28;20222;-69
2022/01/01 08:12:28;;;;;;;13.87;9.90;;;;;;;8.19;100.00;99248.88;5100645;28;20210;-69
2022/01/01 08:14:57;;;;;;;12.67;9.57;;;;;;;8.14;100.00;99253.53;5099438;28;20222;-69
2022/01/01 08:17:24;;;;;;;12.23;9.03;;;;;;;8.17;100.00;99240.22;5099086;28;20218;-69
2022/01/01 08:19:52;;;;;;;11.87;8.93;;;;;;;8.13;100.00;99235.97;5109556;28;20578;-69
2022/01/01 08:22:19;;;;;;;13.37;9.03;;;;;;;8.09;100.00;99239.69;5098588;28;20211;-68
2022/01/01 08:24:46;;;;;;;13.03;9.40;;;;;;;8.04;100.00;99236.38;5098600;28;20238;-67
2022/01/01 08:27:12;;;;;;;12.93;9.50;;;;;;;8.01;100.00;99239.13;5098847;28;20289;-68
2022/01/01 08:29:39;;;;;;;11.83;9.40;;;;;;;8.13;100.00;99249.16;5100394;28;20245;-68
2022/01/01 08:32:06;;;;;;;12.63;9.77;;;;;;;8.29;100.00;99252.91;5098119;28;20222;-68
2022/01/01 08:34:33;;;;;;;12.63;8.83;;;;;;;8.44;100.00;99242.56;5098315;28;20289;-68
2022/01/01 08:37:00;;;;;;;12.93;9.63;;;;;;;8.58;100.00;99255.97;5098269;28;20207;-68
2022/01/01 08:39:27;;;;;;;12.03;9.20;;;;;;;8.77;100.00;99253.41;5100318;28;20218;-68
2022/01/01 08:41:53;;;;;;;12.43;9.00;;;;;;;8.96;100.00;99251.66;5098101;28;20218;-68
2022/01/01 08:44:20;;;;;;;11.97;8.80;;;;;;;9.16;100.00;99260.38;5098103;28;20217;-69
2022/01/01 08:46:47;;;;;;;10.53;7.77;;;;;;;9.38;100.00;99273.44;5096426;28;20211;-68
2022/01/01 08:49:14;;;;;;;11.30;7.63;;;;;;;9.59;100.00;99264.50;5099607;28;20221;-68
2022/01/01 08:51:43;;;;;;;10.33;8.03;;;;;;;9.77;100.00;99266.28;5100230;28;20679;-68
2022/01/01 08:54:11;;;;;;;10.90;7.97;;;;;;;9.94;100.00;99266.31;5098242;28;20258;-69
2022/01/01 08:56:38;;;;;;;10.47;7.70;;;;;;;10.06;100.00;99271.03;5098134;28;20211;-69
2022/01/01 08:59:04;;;;;;;8.93;7.07;;;;;;;10.16;100.00;99267.03;5099615;28;20206;-68
2022/01/01 09:01:31;;;;;;;8.17;7.17;;;;;;;10.23;100.00;99269.28;5100354;28;20216;-68
2022/01/01 09:03:59;;;;;;;10.43;7.17;;;;;;;10.31;100.00;99282.97;5098295;28;20599;-68
2022/01/01 09:06:26;;;;;;;9.57;7.43;;;;;;;10.32;100.00;99275.88;5098036;28;20239;-69
2022/01/01 09:08:52;;;;;;;9.00;6.97;;;;;;;10.31;100.00;99282.09;5101126;28;20231;-69
2022/01/01 09:11:20;;;;;;;9.77;7.13;;;;;;;10.27;100.00;99281.41;5097632;28;20578;-70
2022/01/01 09:13:47;;;;;;;8.10;6.80;;;;;;;10.32;100.00;99278.50;5096088;28;20594;-70
2022/01/01 09:16:15;;;;;;;9.23;6.80;;;;;;;10.35;100.00;99273.09;5097303;28;20223;-70
2022/01/01 09:18:44;;;;;;;9.37;7.00;;;;;;;10.39;100.00;99275.50;5100376;28;20210;-70
2022/01/01 09:21:12;;;;;;;9.23;6.90;;;;;;;10.50;100.00;99283.75;5097354;28;20212;-70
2022/01/01 09:23:39;;;;;;;10.50;6.87;;;;;;;10.65;100.00;99282.94;5097395;28;20263;-70
2022/01/01 09:26:06;;;;;;;9.17;6.93;;;;;;;10.79;100.00;99284.88;5096938;28;20244;-70
2022/01/01 09:28:35;;;;;;;9.47;7.03;;;;;;;10.82;100.00;99284.75;5100137;28;20211;-70
2022/01/01 09:31:03;;;;;;;8.57;6.83;;;;;;;10.75;100.00;99288.63;5097364;28;20257;-70
2022/01/01 09:33:31;;;;;;;8.30;6.67;;;;;;;10.65;100.00;99293.53;5100198;28;20233;-69
2022/01/01 09:35:58;;;;;;;8.60;6.27;;;;;;;10.54;100.00;99295.00;5101163;28;20303;-70
2022/01/01 09:38:24;;;;;;;8.87;6.60;;;;;;;10.41;100.00;99294.75;5099031;28;20221;-69
2022/01/01 09:40:53;;;;;;;7.67;6.03;;;;;;;10.30;100.00;99305.03;5096318;28;20237;-70
2022/01/01 09:43:21;;;;;;;9.17;6.60;;;;;;;10.19;100.00;99301.19;5097159;28;20628;-69
2022/01/01 09:45:50;;;;;;;7.90;6.33;;;;;;;10.15;100.00;99308.41;5096934;28;20236;-69
2022/01/01 09:48:18;;;;;;;9.53;6.70;;;;;;;10.13;100.00;99305.00;5099227;28;20214;-70
2022/01/01 09:50:47;;;;;;;7.67;6.60;;;;;;;10.11;100.00;99309.53;5096821;28;20223;-68
2022/01/01 09:53:15;;;;;;;8.83;6.60;;;;;;;10.14;100.00;99312.00;5096849;28;20236;-69
2022/01/01 09:55:42;;;;;;;10.23;7.07;;;;;;;10.26;100.00;99305.25;5097173;28;20210;-69
2022/01/01 09:58:08;;;;;;;11.50;7.70;;;;;;;10.28;100.00;99303.41;5099010;28;20213;-69
2022/01/01 10:00:35;;;;;;;9.63;7.50;;;;;;;10.31;100.00;99305.88;5096902;28;20214;-69
2022/01/01 10:03:03;;;;;;;9.33;6.87;;;;;;;10.34;100.00;99298.66;5096552;28;20218;-68
2022/01/01 10:05:29;;;;;;;9.53;6.77;;;;;;;10.34;100.00;99297.81;5093304;28;20250;-70
2022/01/01 10:08:01;;;;;;;8.87;6.77;;;;;;;10.35;100.00;99289.78;5096416;28;20233;-69
2022/01/01 10:10:27;;;;;;;9.70;6.67;;;;;;;10.43;100.00;99289.41;5097663;28;20298;-70
2022/01/01 10:12:54;;;;;;;9.23;6.90;;;;;;;10.51;100.00;99290.75;5097056;28;20222;-69
2022/01/01 10:15:20;;;;;;;8.57;6.63;;;;;;;10.59;100.00;99285.91;5096798;28;20251;-70
2022/01/01 10:17:47;;;;;;;10.13;7.13;;;;;;;10.65;100.00;99288.22;5098378;28;20212;-70
2022/01/01 10:20:16;;;;;;;8.50;6.80;;;;;;;10.64;100.00;99283.06;5098607;28;20224;-70
2022/01/01 10:22:43;;;;;;;10.90;7.90;;;;;;;10.76;100.00;99277.13;5096733;28;20223;-69
2022/01/01 10:28:11;;;;;;;10.13;7.73;;;;;;;10.87;100.00;99280.03;5029599;28;20772;-68
2022/01/01 10:30:40;;;;;;;11.77;7.80;;;;;;;10.85;100.00;99274.00;5028985;28;20297;-69
2022/01/01 10:33:10;;;;;;;9.63;6.70;;;;;;;10.82;100.00;99263.59;5064046;28;20268;-68
2022/01/01 10:35:41;;;;;;;8.60;6.67;;;;;;;10.87;100.00;99272.97;5101974;28;20219;-69
2022/01/01 10:38:11;;;;;;;8.50;6.20;;;;;;;10.89;100.00;99270.25;5105484;28;20213;-68
2022/01/01 10:40:37;;;;;;;7.23;6.37;;;;;;;10.96;100.00;99267.19;5105759;28;20217;-70
2022/01/01 10:43:04;;;;;;;9.77;6.37;;;;;;;10.99;100.00;99268.81;5103521;28;20220;-68
2022/01/01 10:45:32;;;;;;;8.90;6.67;;;;;;;11.02;100.00;99256.28;5101742;28;20245;-68
2022/01/01 10:48:16;;;;;;;9.13;6.87;;;;;;;11.09;100.00;99259.47;5094563;28;20220;-68
2022/01/01 10:50:46;;;;;;;8.90;6.67;;;;;;;11.18;100.00;99256.34;5095014;28;20629;-71
2022/01/01 10:53:15;;;;;;;8.23;6.23;;;;;;;11.24;100.00;99261.28;5096752;28;20214;-69
2022/01/01 10:55:43;;;;;;;6.73;5.37;;;;;;;11.30;100.00;99258.31;5094679;28;20245;-68
2022/01/01 10:58:16;;;;;;;7.77;5.70;;;;;;;11.34;100.00;99251.91;5092807;28;20207;-70
2022/01/01 11:00:43;;;;;;;7.37;5.90;;;;;;;11.37;100.00;99254.41;5095707;28;20225;-68
2022/01/01 11:03:10;;;;;;;7.67;5.13;;;;;;;11.46;100.00;99245.94;5095358;28;20214;-68
2022/01/01 11:05:38;;;;;;;7.90;5.70;;;;;;;11.58;100.00;99237.31;5094311;28;20270;-68
2022/01/01 11:08:08;;;;;;;6.93;5.37;;;;;;;11.53;100.00;99234.06;5095617;28;20294;-71
2022/01/01 11:10:35;;;;;;;7.47;5.40;;;;;;;11.55;100.00;99234.88;5103966;28;20213;-68
2022/01/01 11:13:03;;;;;;;7.40;5.87;;;;;;;11.53;100.00;99227.00;5101486;28;20223;-69
2022/01/01 11:15:31;;;;;;;6.33;5.00;;;;;;;11.60;99.94;99228.41;5106629;28;20211;-68
2022/01/01 11:17:58;;;;;;;7.27;4.80;;;;;;;11.62;98.78;99228.31;5109461;28;20595;-68
2022/01/01 11:20:26;;;;;;;7.40;5.20;;;;;;;11.65;98.46;99230.78;5107832;28;20213;-69
2022/01/01 11:22:53;;;;;;;6.10;4.30;;;;;;;11.77;94.37;99220.38;5105604;28;20220;-70